Time;durP1;ratioP1;P1;durP2;ratioP2;P2;SDS_P1;SDS_P2;PMS_P1;PMS_P2;Temp;Humidity;BMP_temperature;BMP_pressure;BME280_temperature;BME280_humidity;BME280_pressure;Samples;Min_cycle;Max_cycle;Signal;HPM_P1;HPM_P2
2023/06/24 00:02:23;;;;;;;11.50;6.80;;;19.30;99.90;;;;;;7279689;19;20200;-77
2023/06/24 00:04:51;;;;;;;13.47;7.03;;;19.10;99.90;;;;;;7289149;19;20184;-76
2023/06/24 00:07:16;;;;;;;16.53;7.47;;;19.00;99.90;;;;;;7300752;19;20599;-76
2023/06/24 00:09:42;;;;;;;13.67;6.67;;;18.90;99.90;;;;;;7279984;19;20184;-76
2023/06/24 00:12:08;;;;;;;14.57;7.27;;;18.90;99.90;;;;;;7281702;19;21179;-76
2023/06/24 00:14:36;;;;;;;12.63;6.97;;;18.90;99.90;;;;;;7280605;19;20620;-76
2023/06/24 00:17:02;;;;;;;16.37;7.47;;;18.90;99.90;;;;;;7280768;19;20525;-77
2023/06/24 00:19:27;;;;;;;13.43;7.00;;;18.90;99.90;;;;;;7280628;19;20185;-76
2023/06/24 00:21:53;;;;;;;11.90;7.00;;;19.00;99.90;;;;;;7280308;19;20185;-77
2023/06/24 00:24:25;;;;;;;16.13;7.63;;;18.90;99.90;;;;;;7294824;19;20195;-78
2023/06/24 00:26:55;;;;;;;13.30;7.30;;;18.80;99.90;;;;;;7292242;19;20194;-77
2023/06/24 00:29:21;;;;;;;12.43;7.03;;;18.60;99.90;;;;;;7289755;19;20193;-76
2023/06/24 00:31:47;;;;;;;12.50;7.17;;;18.60;99.90;;;;;;7311691;19;20175;-77
2023/06/24 00:34:13;;;;;;;11.70;6.80;;;18.60;99.90;;;;;;7279440;19;20191;-78
2023/06/24 00:36:39;;;;;;;13.83;7.17;;;18.70;99.90;;;;;;7280050;19;20271;-77
2023/06/24 00:39:05;;;;;;;13.90;6.80;;;18.70;99.90;;;;;;7280543;19;20189;-76
2023/06/24 00:41:34;;;;;;;14.47;7.23;;;18.60;99.90;;;;;;7278109;19;20197;-77
2023/06/24 00:44:01;;;;;;;13.23;7.43;;;18.70;99.90;;;;;;7280064;19;20598;-76
2023/06/24 00:46:28;;;;;;;11.47;6.60;;;18.60;99.90;;;;;;7279845;19;20195;-77
2023/06/24 00:48:57;;;;;;;15.73;7.00;;;18.60;99.90;;;;;;7280125;19;20268;-77
2023/06/24 00:51:26;;;;;;;13.67;7.20;;;18.60;99.90;;;;;;7279029;19;21053;-76
2023/06/24 00:53:53;;;;;;;12.10;6.60;;;18.50;99.90;;;;;;7278810;19;20533;-77
2023/06/24 00:56:25;;;;;;;13.73;6.67;;;18.50;99.90;;;;;;7294482;19;20185;-76
2023/06/24 00:58:52;;;;;;;12.33;6.90;;;18.50;99.90;;;;;;7276546;19;20605;-77
2023/06/24 01:01:18;;;;;;;12.27;6.83;;;18.50;99.90;;;;;;7300595;19;20184;-76
2023/06/24 01:03:46;;;;;;;13.27;6.97;;;18.60;99.90;;;;;;7278584;19;20194;-76
2023/06/24 01:06:13;;;;;;;12.83;7.07;;;18.50;99.90;;;;;;7277208;19;20301;-76
2023/06/24 01:08:39;;;;;;;12.83;6.50;;;18.30;99.90;;;;;;7282432;19;20301;-76
2023/06/24 01:11:05;;;;;;;15.73;6.83;;;18.20;99.90;;;;;;7283810;19;20189;-76
2023/06/24 01:13:31;;;;;;;12.67;6.57;;;18.20;99.90;;;;;;7281366;19;20210;-76
2023/06/24 01:16:06;;;;;;;12.27;7.10;;;18.20;99.90;;;;;;7288650;19;20194;-76
2023/06/24 01:18:39;;;;;;;10.03;5.83;;;18.20;99.90;;;;;;7287731;19;20191;-76
2023/06/24 01:21:31;;;;;;;12.90;6.63;;;18.20;99.90;;;;;;7286800;19;20189;-75
2023/06/24 01:24:29;;;;;;;10.63;6.23;;;18.20;99.90;;;;;;7180801;19;2004626;-76
2023/06/24 01:27:19;;;;;;;12.07;6.53;;;18.10;99.90;;;;;;7182165;19;2004635;-76
2023/06/24 01:30:07;;;;;;;13.53;6.27;;;18.00;99.90;;;;;;7291341;19;20215;-76
2023/06/24 01:32:38;;;;;;;13.03;5.90;;;17.90;99.90;;;;;;7187110;19;2006468;-76
2023/06/24 01:35:20;;;;;;;13.00;6.70;;;17.80;99.90;;;;;;7284543;19;20220;-77
2023/06/24 01:37:51;;;;;;;12.00;6.00;;;17.80;99.90;;;;;;7287087;19;20189;-76
2023/06/24 01:40:29;;;;;;;14.33;6.50;;;17.90;99.90;;;;;;7285494;19;20187;-76
2023/06/24 01:42:58;;;;;;;12.07;5.77;;;17.80;99.90;;;;;;7183901;19;2006100;-76
2023/06/24 01:45:31;;;;;;;13.53;5.63;;;17.90;99.90;;;;;;7285802;19;20683;-76
2023/06/24 01:48:07;;;;;;;11.00;6.10;;;17.80;99.90;;;;;;7284193;19;20189;-76
2023/06/24 01:50:35;;;;;;;13.03;5.83;;;17.80;99.90;;;;;;7284756;19;20197;-76
2023/06/24 01:53:05;;;;;;;10.87;5.73;;;17.60;99.90;;;;;;7283706;19;20257;-77
2023/06/24 01:55:34;;;;;;;12.63;6.17;;;17.50;99.90;;;;;;7284113;19;20547;-76
2023/06/24 01:58:02;;;;;;;14.10;6.63;;;17.50;99.90;;;;;;7284822;19;20188;-76
2023/06/24 02:00:29;;;;;;;11.27;5.90;;;17.40;99.90;;;;;;7284410;19;20203;-77
2023/06/24 02:02:56;;;;;;;10.30;5.70;;;17.40;99.90;;;;;;7280960;19;20218;-76
2023/06/24 02:05:24;;;;;;;12.67;5.50;;;17.40;99.90;;;;;;7281867;19;20195;-76
2023/06/24 02:07:52;;;;;;;11.13;6.10;;;17.40;99.90;;;;;;7281569;19;20203;-77
2023/06/24 02:10:20;;;;;;;12.83;6.40;;;17.40;99.90;;;;;;7303335;19;20181;-76
2023/06/24 02:12:48;;;;;;;12.57;6.40;;;17.40;99.90;;;;;;7282559;19;20206;-77
2023/06/24 02:15:15;;;;;;;12.77;6.00;;;17.50;99.90;;;;;;7282537;19;20230;-77
2023/06/24 02:17:42;;;;;;;11.97;5.80;;;17.40;99.90;;;;;;7279308;19;20193;-77
2023/06/24 02:20:10;;;;;;;10.40;5.80;;;17.30;99.90;;;;;;7279732;19;20197;-76
2023/06/24 02:22:39;;;;;;;12.07;5.87;;;17.30;99.90;;;;;;7281255;19;20203;-76
2023/06/24 02:25:06;;;;;;;11.73;6.37;;;17.30;99.90;;;;;;7279952;19;20543;-77
2023/06/24 02:27:33;;;;;;;13.07;5.90;;;17.20;99.90;;;;;;7280963;19;20578;-77
2023/06/24 02:30:00;;;;;;;14.43;5.73;;;17.20;99.90;;;;;;7281265;19;20192;-76
2023/06/24 02:32:26;;;;;;;12.03;6.40;;;17.30;99.90;;;;;;7281065;19;20270;-76
2023/06/24 02:34:52;;;;;;;12.17;5.77;;;17.30;99.90;;;;;;7280725;19;20189;-76
2023/06/24 02:37:17;;;;;;;11.67;5.67;;;17.30;99.90;;;;;;7303686;19;20196;-76
2023/06/24 02:39:43;;;;;;;13.60;5.90;;;17.30;99.90;;;;;;7280502;19;20252;-76
2023/06/24 02:42:12;;;;;;;11.50;5.23;;;17.20;99.90;;;;;;7280422;19;20665;-77
2023/06/24 02:44:42;;;;;;;12.70;6.10;;;17.10;99.90;;;;;;7281835;19;20555;-76
2023/06/24 02:47:11;;;;;;;11.17;5.83;;;17.10;99.90;;;;;;7280396;19;20256;-76
2023/06/24 02:49:38;;;;;;;11.80;5.70;;;17.00;99.90;;;;;;7280756;19;20193;-76
2023/06/24 02:52:05;;;;;;;13.87;6.30;;;17.00;99.90;;;;;;7280919;19;20193;-76
2023/06/24 02:54:33;;;;;;;9.80;5.63;;;16.90;99.90;;;;;;7279564;19;20196;-76
2023/06/24 02:57:20;;;;;;;11.47;5.20;;;16.90;99.90;;;;;;7282938;19;20195;-76
2023/06/24 03:00:18;;;;;;;13.47;6.03;;;16.70;99.90;;;;;;7177710;19;2004960;-76
2023/06/24 03:03:17;;;;;;;11.57;5.60;;;16.70;99.90;;;;;;7037616;19;2821999;-76
2023/06/24 03:05:50;;;;;;;9.40;4.97;;;16.70;99.90;;;;;;7282402;19;21270;-76
2023/06/24 03:08:17;;;;;;;14.70;5.83;;;16.70;99.90;;;;;;7303812;19;20180;-76
2023/06/24 03:10:44;;;;;;;11.03;5.80;;;16.60;99.90;;;;;;7282341;19;20181;-76
2023/06/24 03:13:16;;;;;;;10.33;5.53;;;16.60;99.90;;;;;;7279979;19;20347;-76
2023/06/24 03:15:46;;;;;;;9.73;5.50;;;16.60;99.90;;;;;;7282939;19;20210;-76
2023/06/24 03:18:12;;;;;;;12.17;5.80;;;16.60;99.90;;;;;;7281911;19;20207;-76
2023/06/24 03:20:38;;;;;;;10.63;6.13;;;16.60;99.90;;;;;;7281350;19;22352;-76
2023/06/24 03:23:08;;;;;;;10.70;5.83;;;16.60;99.90;;;;;;7281139;19;20192;-76
2023/06/24 03:25:35;;;;;;;10.97;5.93;;;16.60;99.90;;;;;;7280034;19;20200;-76
2023/06/24 03:28:03;;;;;;;13.63;5.67;;;16.60;99.90;;;;;;7280734;19;20196;-77
2023/06/24 03:30:31;;;;;;;10.43;5.97;;;16.50;99.90;;;;;;7279701;19;20581;-76
2023/06/24 03:32:57;;;;;;;12.00;6.00;;;16.60;99.90;;;;;;7280954;19;20202;-76
2023/06/24 03:35:23;;;;;;;12.33;5.93;;;16.60;99.90;;;;;;7279688;19;20193;-76
2023/06/24 03:37:49;;;;;;;12.80;6.07;;;16.60;99.90;;;;;;7297160;19;20206;-76
2023/06/24 03:40:15;;;;;;;14.97;6.30;;;16.70;99.90;;;;;;7305523;19;20211;-76
2023/06/24 03:42:41;;;;;;;13.70;6.10;;;16.70;99.90;;;;;;7296505;19;20180;-76
2023/06/24 03:45:07;;;;;;;12.77;6.30;;;16.60;99.90;;;;;;7295955;19;20244;-76
2023/06/24 03:47:33;;;;;;;14.00;5.77;;;16.70;99.90;;;;;;7290572;19;20627;-76
2023/06/24 03:49:59;;;;;;;11.37;5.73;;;16.70;99.90;;;;;;7282932;19;20189;-76
2023/06/24 03:52:25;;;;;;;12.70;5.90;;;16.70;99.90;;;;;;7282127;19;20192;-76
2023/06/24 03:54:51;;;;;;;10.77;5.57;;;16.70;99.90;;;;;;7280221;19;20288;-76
2023/06/24 03:57:18;;;;;;;12.67;5.80;;;16.70;99.90;;;;;;7304073;19;20272;-76
2023/06/24 03:59:44;;;;;;;15.43;6.33;;;16.60;99.90;;;;;;7280855;19;20189;-77
2023/06/24 04:02:09;;;;;;;11.87;6.20;;;16.60;99.90;;;;;;7281022;19;20229;-76
2023/06/24 04:04:36;;;;;;;13.00;5.90;;;16.60;99.90;;;;;;7280339;19;20193;-76
2023/06/24 04:07:05;;;;;;;11.53;5.43;;;16.70;99.90;;;;;;7279674;19;20189;-76
2023/06/24 04:09:33;;;;;;;11.27;5.70;;;16.80;99.90;;;;;;7278401;19;20192;-76
2023/06/24 04:11:59;;;;;;;13.30;5.97;;;16.80;99.90;;;;;;7279138;19;20702;-76
2023/06/24 04:14:29;;;;;;;12.47;5.70;;;16.90;99.90;;;;;;7280139;19;20513;-76
2023/06/24 04:16:54;;;;;;;11.33;5.30;;;16.90;99.90;;;;;;7280410;19;20193;-76
2023/06/24 04:19:20;;;;;;;10.90;5.37;;;16.90;99.90;;;;;;7290380;19;20185;-77
2023/06/24 04:21:46;;;;;;;13.70;5.83;;;17.00;99.90;;;;;;7300494;19;20210;-76
2023/06/24 04:24:12;;;;;;;10.23;5.57;;;17.00;99.90;;;;;;7280077;19;20189;-76
2023/06/24 04:26:37;;;;;;;11.90;5.00;;;17.10;99.90;;;;;;7279042;19;20177;-76
2023/06/24 04:29:03;;;;;;;13.70;5.60;;;17.20;99.90;;;;;;7279818;19;20181;-76
2023/06/24 04:31:29;;;;;;;10.23;5.40;;;17.50;99.90;;;;;;7278107;19;20211;-77
2023/06/24 04:33:55;;;;;;;9.17;4.47;;;18.40;99.90;;;;;;7279486;19;20198;-76
2023/06/24 04:36:20;;;;;;;9.47;4.60;;;19.70;99.90;;;;;;7283583;19;20197;-76
2023/06/24 04:38:46;;;;;;;9.37;4.63;;;21.10;99.90;;;;;;7300500;19;20602;-76
2023/06/24 04:41:12;;;;;;;9.23;4.13;;;22.00;99.90;;;;;;7280009;19;20182;-76
2023/06/24 04:43:38;;;;;;;8.93;4.33;;;23.00;99.90;;;;;;7278146;19;20221;-77
2023/06/24 04:46:04;;;;;;;11.07;4.40;;;23.90;99.90;;;;;;7279016;19;20721;-77
2023/06/24 04:48:29;;;;;;;9.93;4.23;;;24.20;99.90;;;;;;7277482;19;20552;-77
2023/06/24 04:50:57;;;;;;;8.90;4.20;;;24.60;99.90;;;;;;7278905;19;20205;-76
2023/06/24 04:53:23;;;;;;;8.83;4.17;;;25.20;99.90;;;;;;7279220;19;20212;-76
2023/06/24 04:55:49;;;;;;;9.18;4.25;;;26.10;99.90;;;;;;7301785;19;20560;-77
2023/06/24 04:58:14;;;;;;;8.20;4.07;;;26.50;99.90;;;;;;7286882;19;20537;-77
2023/06/24 05:00:40;;;;;;;7.95;4.00;;;27.20;99.90;;;;;;7279729;19;20253;-77
2023/06/24 05:03:06;;;;;;;6.95;3.75;;;27.20;99.90;;;;;;7280289;19;20196;-76
2023/06/24 05:05:32;;;;;;;8.55;4.18;;;27.50;99.90;;;;;;7278202;19;20196;-76
2023/06/24 05:07:57;;;;;;;9.77;3.92;;;28.20;99.90;;;;;;7279051;19;20185;-76
2023/06/24 05:10:23;;;;;;;9.50;4.07;;;28.60;99.90;;;;;;7279694;19;20222;-76
2023/06/24 05:12:49;;;;;;;7.97;4.10;;;28.90;99.90;;;;;;7300676;19;20191;-77
2023/06/24 05:15:14;;;;;;;8.55;4.38;;;29.40;99.90;;;;;;7280469;19;20244;-80
2023/06/24 05:17:40;;;;;;;7.60;3.63;;;29.20;99.90;;;;;;7280679;19;20188;-79
2023/06/24 05:20:06;;;;;;;9.00;4.13;;;30.00;99.90;;;;;;7281458;19;20215;-79
2023/06/24 05:22:32;;;;;;;8.20;4.10;;;30.40;99.30;;;;;;7282031;19;20217;-79
2023/06/24 05:24:58;;;;;;;10.05;3.90;;;30.20;97.50;;;;;;7282175;19;20295;-78
2023/06/24 05:27:24;;;;;;;7.55;4.10;;;30.00;98.00;;;;;;7281911;19;20193;-77
2023/06/24 05:29:49;;;;;;;7.15;3.78;;;30.10;97.20;;;;;;7298291;19;20209;-77
2023/06/24 05:32:17;;;;;;;8.15;4.55;;;30.70;97.10;;;;;;7291144;19;20188;-77
2023/06/24 05:34:43;;;;;;;8.55;4.32;;;30.80;95.40;;;;;;7279207;19;20189;-76
2023/06/24 05:37:09;;;;;;;10.27;4.95;;;30.90;94.70;;;;;;7278478;19;20212;-76
2023/06/24 05:39:34;;;;;;;8.43;4.63;;;31.40;94.20;;;;;;7277566;19;20648;-76
2023/06/24 05:42:00;;;;;;;7.18;4.30;;;31.60;92.40;;;;;;7277658;19;20648;-76
2023/06/24 05:44:26;;;;;;;8.60;4.50;;;32.10;92.90;;;;;;7276675;19;20192;-76
2023/06/24 05:46:51;;;;;;;7.50;4.63;;;32.40;91.50;;;;;;7279204;19;20205;-77
2023/06/24 05:49:17;;;;;;;9.75;4.75;;;33.10;89.50;;;;;;7299303;19;20189;-78
2023/06/24 05:51:43;;;;;;;8.05;4.43;;;33.50;87.20;;;;;;7277804;19;20294;-77
2023/06/24 05:54:08;;;;;;;8.98;4.35;;;33.90;84.70;;;;;;7281636;19;20189;-75
2023/06/24 05:56:36;;;;;;;8.88;4.75;;;34.30;83.50;;;;;;7285326;19;20591;-76
2023/06/24 05:59:02;;;;;;;7.55;4.32;;;34.80;81.40;;;;;;7285583;19;20193;-77
2023/06/24 06:01:27;;;;;;;9.02;4.70;;;35.40;78.40;;;;;;7284549;19;20260;-77
2023/06/24 06:03:53;;;;;;;9.52;4.35;;;35.20;76.70;;;;;;7285140;19;21207;-77
2023/06/24 06:06:19;;;;;;;13.00;4.45;;;35.50;75.80;;;;;;7306657;19;20196;-77
2023/06/24 06:08:44;;;;;;;10.18;4.43;;;35.10;74.90;;;;;;7285866;19;20376;-77
2023/06/24 06:11:10;;;;;;;8.50;4.80;;;35.50;74.60;;;;;;7284690;19;20174;-77
2023/06/24 06:13:36;;;;;;;9.20;4.50;;;35.80;73.00;;;;;;7284872;19;20225;-78
2023/06/24 06:16:01;;;;;;;9.38;4.25;;;35.40;71.40;;;;;;7284351;19;20661;-78
2023/06/24 06:18:27;;;;;;;8.10;4.18;;;35.60;72.10;;;;;;7282972;19;20252;-77
2023/06/24 06:20:53;;;;;;;7.88;4.00;;;34.80;71.30;;;;;;7284463;19;20208;-77
2023/06/24 06:23:19;;;;;;;9.98;3.88;;;35.00;71.80;;;;;;7306769;19;20185;-77
2023/06/24 06:25:44;;;;;;;7.88;3.47;;;35.20;71.80;;;;;;7281418;19;20192;-77
2023/06/24 06:28:10;;;;;;;6.88;3.33;;;35.50;71.50;;;;;;7282952;19;20193;-77
2023/06/24 06:30:36;;;;;;;9.20;3.38;;;35.70;69.70;;;;;;7284124;19;20188;-77
2023/06/24 06:33:01;;;;;;;6.60;3.33;;;35.10;68.40;;;;;;7282662;19;20252;-76
2023/06/24 06:35:27;;;;;;;8.50;3.53;;;34.40;69.20;;;;;;7283077;19;20648;-77
2023/06/24 06:37:54;;;;;;;5.75;3.00;;;34.30;71.00;;;;;;7285357;19;20188;-76
2023/06/24 06:40:22;;;;;;;7.10;3.20;;;34.20;71.40;;;;;;7301735;19;20188;-77
2023/06/24 06:42:48;;;;;;;8.60;3.00;;;34.90;71.20;;;;;;7306263;19;20181;-77
2023/06/24 06:45:14;;;;;;;6.57;3.28;;;35.20;69.60;;;;;;7284963;19;20180;-77
2023/06/24 06:47:40;;;;;;;7.63;3.08;;;35.10;69.00;;;;;;7283609;19;20237;-77
2023/06/24 06:50:07;;;;;;;8.52;2.97;;;34.60;69.80;;;;;;7284404;19;20193;-77
2023/06/24 06:52:33;;;;;;;6.32;2.90;;;35.10;70.20;;;;;;7286468;19;20268;-77
2023/06/24 06:54:59;;;;;;;6.72;3.10;;;35.40;70.50;;;;;;7287686;19;20204;-78
2023/06/24 06:57:25;;;;;;;6.97;2.58;;;35.50;69.20;;;;;;7294381;19;20326;-77
2023/06/24 06:59:51;;;;;;;5.35;2.72;;;35.30;67.90;;;;;;7299379;19;20180;-77
2023/06/24 07:02:20;;;;;;;6.53;2.53;;;35.40;68.50;;;;;;7310388;19;20214;-77
2023/06/24 07:04:47;;;;;;;6.13;2.88;;;35.80;69.00;;;;;;7283045;19;20193;-77
2023/06/24 07:07:13;;;;;;;6.55;3.30;;;36.40;65.80;;;;;;7280906;19;20192;-78
2023/06/24 07:09:39;;;;;;;5.97;3.08;;;36.00;65.60;;;;;;7286725;19;20191;-78
2023/06/24 07:12:06;;;;;;;5.35;2.63;;;35.90;65.90;;;;;;7284531;19;20248;-78
2023/06/24 07:14:32;;;;;;;5.18;3.50;;;36.20;67.10;;;;;;7284204;19;20184;-78
2023/06/24 07:16:58;;;;;;;6.50;2.97;;;37.00;66.30;;;;;;7285264;19;20199;-78
2023/06/24 07:19:23;;;;;;;6.65;2.97;;;37.80;63.90;;;;;;7283921;19;20549;-78
2023/06/24 07:21:49;;;;;;;5.43;3.00;;;36.10;63.20;;;;;;7306710;19;20181;-78
2023/06/24 07:24:15;;;;;;;5.63;2.72;;;37.10;66.60;;;;;;7285390;19;20648;-78
2023/06/24 07:26:40;;;;;;;5.40;2.75;;;37.80;64.30;;;;;;7284857;19;20178;-79
2023/06/24 07:29:07;;;;;;;5.65;2.75;;;38.00;61.50;;;;;;7284698;19;20185;-79
2023/06/24 07:31:33;;;;;;;5.13;2.60;;;38.80;60.90;;;;;;7284161;19;20188;-79
2023/06/24 07:33:59;;;;;;;6.30;3.10;;;37.50;61.80;;;;;;7284689;19;20193;-78
2023/06/24 07:36:25;;;;;;;4.25;2.42;;;37.90;61.20;;;;;;7286617;19;20708;-79
2023/06/24 07:38:50;;;;;;;5.80;2.42;;;37.90;60.60;;;;;;7298232;19;20543;-78
2023/06/24 07:41:16;;;;;;;5.88;2.50;;;39.00;59.90;;;;;;7301518;19;20206;-78
2023/06/24 07:43:42;;;;;;;3.67;2.33;;;38.20;59.40;;;;;;7286157;19;20197;-78
2023/06/24 07:46:08;;;;;;;4.35;2.30;;;39.00;58.80;;;;;;7284049;19;20207;-78
2023/06/24 07:48:34;;;;;;;5.20;2.55;;;39.30;57.90;;;;;;7284264;19;20213;-79
2023/06/24 07:51:00;;;;;;;4.50;2.17;;;39.90;56.80;;;;;;7280364;19;20189;-79
2023/06/24 07:53:25;;;;;;;6.13;2.17;;;40.80;56.60;;;;;;7283950;19;20196;-79
2023/06/24 07:55:51;;;;;;;6.25;2.30;;;40.80;54.80;;;;;;7291806;19;20654;-79
2023/06/24 07:58:19;;;;;;;5.03;2.03;;;41.50;55.10;;;;;;7305727;19;20213;-79
2023/06/24 08:00:44;;;;;;;5.85;2.28;;;42.40;54.30;;;;;;7282816;19;20204;-77
2023/06/24 08:03:11;;;;;;;5.10;2.33;;;41.90;52.90;;;;;;7282782;19;20197;-78
2023/06/24 08:05:38;;;;;;;5.28;2.10;;;42.70;53.80;;;;;;7283696;19;20191;-78
2023/06/24 08:08:05;;;;;;;4.80;2.10;;;43.70;52.70;;;;;;7283937;19;20185;-78
2023/06/24 08:10:31;;;;;;;3.97;2.17;;;44.30;51.20;;;;;;7283268;19;20192;-78
2023/06/24 08:12:56;;;;;;;5.30;2.83;;;44.60;49.80;;;;;;7283036;19;20607;-79
2023/06/24 08:15:22;;;;;;;4.93;2.05;;;43.90;49.50;;;;;;7284078;19;20748;-78
2023/06/24 08:17:53;;;;;;;3.40;1.95;;;42.60;49.80;;;;;;7303209;19;20658;-78
2023/06/24 08:20:22;;;;;;;3.42;1.40;;;42.90;49.40;;;;;;7282951;19;20648;-78
2023/06/24 08:22:48;;;;;;;2.65;1.80;;;43.10;48.00;;;;;;7285104;19;20199;-78
2023/06/24 08:25:14;;;;;;;4.13;2.15;;;43.60;49.00;;;;;;7283156;19;20192;-78
2023/06/24 08:27:40;;;;;;;3.55;1.80;;;43.70;47.90;;;;;;7280673;19;20201;-77
2023/06/24 08:30:07;;;;;;;3.47;1.40;;;43.60;48.90;;;;;;7283802;19;20188;-78
2023/06/24 08:32:33;;;;;;;4.07;1.98;;;44.00;47.50;;;;;;7281242;19;20177;-78
2023/06/24 08:34:59;;;;;;;4.85;1.90;;;44.00;47.70;;;;;;7282711;19;20643;-78
2023/06/24 08:37:24;;;;;;;3.78;2.08;;;44.40;47.50;;;;;;7281480;19;20240;-78
2023/06/24 08:39:50;;;;;;;3.38;1.60;;;44.20;46.90;;;;;;7296444;19;20710;-78
2023/06/24 08:42:16;;;;;;;2.65;1.88;;;43.70;44.80;;;;;;7295123;19;20195;-78
2023/06/24 08:44:41;;;;;;;2.85;1.60;;;44.10;47.00;;;;;;7282580;19;20196;-78
2023/06/24 08:47:07;;;;;;;4.68;2.10;;;44.90;46.30;;;;;;7283250;19;20176;-78
2023/06/24 08:49:36;;;;;;;4.38;1.67;;;45.50;46.40;;;;;;7282732;19;20708;-78
2023/06/24 08:52:03;;;;;;;5.20;2.25;;;44.60;44.60;;;;;;7283815;19;20187;-78
2023/06/24 08:54:34;;;;;;;3.90;1.95;;;44.30;45.10;;;;;;7282248;19;20543;-78
2023/06/24 08:57:01;;;;;;;4.30;2.30;;;44.10;45.60;;;;;;7282670;19;20260;-78
2023/06/24 08:59:27;;;;;;;4.13;1.80;;;44.10;45.40;;;;;;7280631;19;20263;-78
2023/06/24 09:01:53;;;;;;;3.38;1.60;;;44.70;45.90;;;;;;7279899;19;20554;-78
2023/06/24 09:04:19;;;;;;;2.35;1.55;;;45.10;44.50;;;;;;7302728;19;20193;-78
2023/06/24 09:06:44;;;;;;;4.88;2.17;;;44.30;46.10;;;;;;7283610;19;20284;-78
2023/06/24 09:09:20;;;;;;;4.43;1.67;;;44.90;46.20;;;;;;7280602;19;20213;-78
2023/06/24 09:12:01;;;;;;;2.17;1.45;;;45.40;44.90;;;;;;7281548;19;20654;-78
2023/06/24 09:14:30;;;;;;;3.72;1.60;;;44.80;42.20;;;;;;7178217;19;2004353;-78
2023/06/24 09:16:58;;;;;;;3.25;1.73;;;44.20;44.00;;;;;;7281832;19;20222;-78
2023/06/24 09:19:29;;;;;;;3.75;1.67;;;44.20;44.30;;;;;;7280438;19;20292;-78
2023/06/24 09:21:56;;;;;;;3.42;1.70;;;45.00;44.70;;;;;;7282113;19;20195;-79
2023/06/24 09:24:21;;;;;;;3.30;1.60;;;45.20;43.40;;;;;;7288548;19;20296;-79
2023/06/24 09:26:47;;;;;;;4.97;1.83;;;44.90;42.50;;;;;;7304299;19;20679;-79
2023/06/24 09:29:16;;;;;;;2.97;1.63;;;45.00;43.20;;;;;;7285448;19;20209;-79
2023/06/24 09:31:52;;;;;;;3.65;1.80;;;45.40;43.30;;;;;;7288235;19;20192;-79
2023/06/24 09:34:19;;;;;;;5.38;1.90;;;45.40;44.60;;;;;;7288477;19;20210;-79
2023/06/24 09:36:50;;;;;;;4.18;1.60;;;45.10;42.50;;;;;;7289640;19;20189;-80
2023/06/24 09:39:16;;;;;;;3.63;1.70;;;44.60;42.10;;;;;;7288032;19;20739;-79
2023/06/24 09:41:42;;;;;;;3.25;1.80;;;44.10;42.70;;;;;;7288344;19;20201;-79
2023/06/24 09:44:11;;;;;;;3.30;1.42;;;44.80;44.20;;;;;;7289129;19;20655;-79
2023/06/24 09:46:37;;;;;;;2.60;1.30;;;44.40;40.90;;;;;;7289334;19;20219;-80
2023/06/24 09:49:06;;;;;;;2.70;1.70;;;42.40;41.40;;;;;;7289271;19;20216;-79
2023/06/24 09:51:40;;;;;;;3.70;1.80;;;39.90;43.70;;;;;;7287751;19;20196;-78
2023/06/24 09:54:10;;;;;;;2.13;1.17;;;40.80;47.40;;;;;;7286522;19;20200;-78
2023/06/24 09:56:38;;;;;;;3.83;1.75;;;42.10;44.80;;;;;;7286927;19;20195;-78
2023/06/24 09:59:08;;;;;;;3.20;1.70;;;43.00;44.50;;;;;;7287196;19;20193;-79
2023/06/24 10:01:38;;;;;;;2.85;1.55;;;43.70;45.10;;;;;;7284249;19;20208;-78
2023/06/24 10:04:05;;;;;;;3.72;1.73;;;44.60;45.50;;;;;;7287972;19;20534;-78
2023/06/24 10:06:33;;;;;;;2.75;1.80;;;45.20;43.30;;;;;;7288995;19;20618;-78
2023/06/24 10:08:59;;;;;;;2.55;1.65;;;45.40;42.70;;;;;;7285770;19;21748;-78
2023/06/24 10:11:26;;;;;;;2.30;1.35;;;45.90;43.30;;;;;;7286503;19;20185;-79
2023/06/24 10:13:52;;;;;;;3.10;1.27;;;45.90;41.00;;;;;;7295988;19;20195;-78
2023/06/24 10:16:19;;;;;;;2.88;1.42;;;45.10;41.30;;;;;;7314624;19;20193;-78
2023/06/24 10:18:45;;;;;;;3.17;1.40;;;45.70;42.30;;;;;;7291526;19;20207;-79
2023/06/24 10:21:12;;;;;;;4.60;1.30;;;46.40;42.30;;;;;;7285899;19;20189;-79
2023/06/24 10:23:50;;;;;;;4.45;1.70;;;46.30;42.20;;;;;;7287114;19;20647;-79
2023/06/24 10:26:35;;;;;;;2.00;1.50;;;46.10;41.60;;;;;;7286971;19;20256;-78
2023/06/24 10:29:08;;;;;;;2.53;1.48;;;46.10;39.40;;;;;;7183224;19;2006307;-79
2023/06/24 10:31:39;;;;;;;3.20;1.65;;;45.80;41.20;;;;;;7287523;19;20188;-79
2023/06/24 10:34:23;;;;;;;3.20;1.70;;;45.80;40.50;;;;;;7287991;19;20268;-79
2023/06/24 10:37:10;;;;;;;3.13;1.60;;;45.60;41.10;;;;;;7287815;19;20200;-79
2023/06/24 10:39:50;;;;;;;4.05;1.80;;;45.90;41.40;;;;;;7181903;19;2004675;-79
2023/06/24 10:42:45;;;;;;;3.67;1.70;;;45.50;41.60;;;;;;7287532;19;20195;-79
2023/06/24 10:45:12;;;;;;;3.10;1.70;;;45.50;42.00;;;;;;7182262;19;2004572;-78
2023/06/24 10:47:41;;;;;;;3.25;1.60;;;45.80;40.80;;;;;;7288144;19;20185;-78
2023/06/24 10:50:09;;;;;;;3.08;1.58;;;44.10;41.20;;;;;;7286545;19;20192;-78
2023/06/24 10:52:46;;;;;;;2.78;1.58;;;44.30;41.60;;;;;;7286208;19;20181;-78
2023/06/24 10:55:18;;;;;;;2.75;1.60;;;44.40;42.60;;;;;;7285906;19;20637;-79
2023/06/24 10:57:44;;;;;;;4.05;1.77;;;44.80;42.80;;;;;;7285373;19;20821;-79
2023/06/24 11:00:12;;;;;;;3.47;1.70;;;45.00;42.40;;;;;;7286168;19;22739;-79
2023/06/24 11:02:37;;;;;;;3.05;1.70;;;45.00;40.80;;;;;;7288610;19;20220;-78
2023/06/24 11:05:04;;;;;;;2.70;1.55;;;43.90;42.60;;;;;;7289042;19;20525;-78
2023/06/24 11:07:35;;;;;;;3.97;1.70;;;44.10;44.00;;;;;;7290348;19;20188;-78
2023/06/24 11:10:10;;;;;;;3.40;1.77;;;44.60;43.30;;;;;;7285593;19;20181;-79
2023/06/24 11:12:37;;;;;;;3.00;1.42;;;44.80;42.90;;;;;;7287913;19;20193;-78
2023/06/24 11:15:05;;;;;;;4.53;1.70;;;44.50;41.40;;;;;;7284842;19;20539;-79
2023/06/24 11:17:33;;;;;;;4.15;1.63;;;44.60;42.20;;;;;;7286120;19;20280;-79
2023/06/24 11:19:58;;;;;;;3.03;1.85;;;45.00;41.90;;;;;;7285029;19;20244;-79
2023/06/24 11:22:25;;;;;;;4.57;1.90;;;45.00;43.30;;;;;;7284459;19;20185;-79
2023/06/24 11:24:52;;;;;;;3.15;1.50;;;45.50;42.60;;;;;;7298387;19;20280;-78
2023/06/24 11:27:27;;;;;;;3.25;1.63;;;43.90;42.60;;;;;;7308951;19;20177;-78
2023/06/24 11:29:55;;;;;;;2.38;1.40;;;43.20;41.70;;;;;;7272103;19;20674;-79
2023/06/24 11:32:21;;;;;;;3.50;1.88;;;43.70;43.20;;;;;;7302615;19;20205;-79
2023/06/24 11:34:47;;;;;;;4.30;1.70;;;44.50;43.20;;;;;;7300962;19;20185;-79
2023/06/24 11:37:15;;;;;;;2.28;1.58;;;44.30;41.30;;;;;;7284336;19;20184;-79
2023/06/24 11:39:41;;;;;;;3.00;1.60;;;44.40;43.20;;;;;;7283179;19;20693;-79
2023/06/24 11:42:08;;;;;;;3.75;1.70;;;44.30;43.80;;;;;;7285858;19;20188;-79
2023/06/24 11:44:34;;;;;;;3.40;1.70;;;43.90;43.60;;;;;;7285613;19;20544;-79
2023/06/24 11:47:06;;;;;;;3.58;1.40;;;43.90;43.80;;;;;;7285803;19;20192;-78
2023/06/24 11:49:47;;;;;;;3.25;1.70;;;43.30;44.60;;;;;;7284258;19;20189;-79
2023/06/24 11:52:12;;;;;;;4.05;1.52;;;43.40;45.00;;;;;;7281969;19;20761;-79
2023/06/24 11:54:42;;;;;;;4.18;2.15;;;44.00;43.60;;;;;;7285432;19;20197;-79
2023/06/24 11:57:08;;;;;;;4.75;1.92;;;44.30;44.10;;;;;;7283686;19;20216;-79
2023/06/24 11:59:34;;;;;;;3.08;1.77;;;43.60;43.30;;;;;;7283488;19;20256;-79
2023/06/24 12:02:03;;;;;;;3.65;1.55;;;43.30;42.90;;;;;;7282256;19;20230;-79
2023/06/24 12:04:33;;;;;;;3.17;1.58;;;42.60;44.20;;;;;;7281306;19;20189;-79
2023/06/24 12:06:59;;;;;;;9.02;1.80;;;41.20;44.00;;;;;;7284985;19;20531;-79
2023/06/24 12:09:25;;;;;;;2.97;1.83;;;40.20;43.50;;;;;;7280985;19;20256;-79
2023/06/24 12:11:52;;;;;;;3.33;1.70;;;38.70;47.00;;;;;;7298612;19;20786;-79
2023/06/24 12:14:18;;;;;;;5.03;1.90;;;37.70;46.70;;;;;;7306346;19;20225;-80
2023/06/24 12:16:45;;;;;;;3.65;1.70;;;37.00;46.70;;;;;;7282997;19;20192;-81
2023/06/24 12:19:11;;;;;;;3.40;1.65;;;36.40;49.40;;;;;;7285651;19;20202;-79
2023/06/24 12:21:37;;;;;;;3.67;1.88;;;35.70;49.50;;;;;;7282299;19;20197;-79
2023/06/24 12:24:04;;;;;;;3.47;1.90;;;35.10;50.40;;;;;;7282765;19;20185;-79
2023/06/24 12:26:37;;;;;;;3.00;1.70;;;34.60;53.80;;;;;;7277924;19;20202;-79
2023/06/24 12:29:02;;;;;;;3.40;1.65;;;34.20;52.60;;;;;;7267209;19;20625;-79
2023/06/24 12:31:28;;;;;;;2.83;1.73;;;33.90;51.40;;;;;;7280353;19;20693;-78
2023/06/24 12:33:54;;;;;;;3.50;1.73;;;33.50;51.90;;;;;;7279107;19;20189;-79
2023/06/24 12:36:24;;;;;;;3.67;1.88;;;33.00;52.50;;;;;;7303768;19;20256;-79
2023/06/24 12:38:50;;;;;;;3.42;1.70;;;32.70;50.60;;;;;;7281970;19;20181;-79
2023/06/24 12:41:16;;;;;;;4.40;1.70;;;32.60;53.10;;;;;;7283366;19;20971;-79
2023/06/24 12:43:43;;;;;;;5.13;2.00;;;32.60;54.10;;;;;;7281778;19;20182;-79
2023/06/24 12:46:12;;;;;;;4.85;2.33;;;32.60;51.90;;;;;;7283058;19;20192;-79
2023/06/24 12:48:38;;;;;;;7.13;1.90;;;32.50;54.30;;;;;;7283216;19;20235;-79